createdAt,value
2023-01-09T00:02:41.887Z,8.8
2023-01-09T00:05:41.851Z,8.8
2023-01-09T00:08:41.846Z,8.8
2023-01-09T00:11:41.843Z,8.8
2023-01-09T00:14:41.848Z,8.8
2023-01-09T00:17:41.847Z,8.8
2023-01-09T00:20:41.858Z,8.8
2023-01-09T00:23:41.849Z,8.8
2023-01-09T00:26:41.851Z,8.8
2023-01-09T00:29:41.844Z,8.8
2023-01-09T00:32:41.858Z,8.8
2023-01-09T00:35:41.856Z,8.8
2023-01-09T00:38:41.863Z,8.8
2023-01-09T00:41:41.846Z,8.8
2023-01-09T00:44:41.845Z,8.8
2023-01-09T00:47:41.846Z,8.8
2023-01-09T00:50:41.833Z,8.8
2023-01-09T00:53:41.850Z,8.8
2023-01-09T00:56:41.871Z,8.8
2023-01-09T00:59:41.863Z,8.8
2023-01-09T01:02:41.923Z,8.8
2023-01-09T01:05:41.870Z,8.8
2023-01-09T01:11:41.857Z,8.8
2023-01-09T01:14:41.851Z,8.8
2023-01-09T01:17:41.854Z,8.8
2023-01-09T01:20:41.869Z,8.8
2023-01-09T01:23:41.860Z,8.8
2023-01-09T01:26:41.857Z,8.8
2023-01-09T01:29:41.861Z,8.7
2023-01-09T01:32:41.859Z,8.7
2023-01-09T01:35:41.860Z,8.7
2023-01-09T01:38:41.863Z,8.7
2023-01-09T01:41:41.854Z,8.7
2023-01-09T01:44:41.855Z,8.7
2023-01-09T01:47:41.866Z,8.7
2023-01-09T01:50:41.862Z,8.7
2023-01-09T01:53:41.858Z,8.7
2023-01-09T01:56:41.855Z,8.7
2023-01-09T01:59:41.855Z,8.7
2023-01-09T02:02:41.949Z,8.7
2023-01-09T02:05:41.860Z,8.7
2023-01-09T02:08:41.862Z,8.7
2023-01-09T02:11:41.857Z,8.7
2023-01-09T02:14:41.865Z,8.7
2023-01-09T02:17:41.855Z,8.7
2023-01-09T02:20:41.861Z,8.7
2023-01-09T02:23:41.858Z,8.7
2023-01-09T02:26:41.862Z,8.7
2023-01-09T02:29:41.862Z,8.6
2023-01-09T02:32:41.860Z,8.6
2023-01-09T02:35:41.857Z,8.6
2023-01-09T02:38:41.866Z,8.6
2023-01-09T02:41:41.859Z,8.6
2023-01-09T02:44:41.859Z,8.6
2023-01-09T02:47:41.865Z,8.5
2023-01-09T02:50:41.860Z,8.5
2023-01-09T02:53:41.867Z,8.5
2023-01-09T02:56:41.872Z,8.5
2023-01-09T02:59:41.859Z,8.5
2023-01-09T03:02:41.896Z,8.4
2023-01-09T03:05:41.867Z,8.4
2023-01-09T03:08:41.858Z,8.4
2023-01-09T03:11:41.849Z,8.4
2023-01-09T03:14:41.866Z,8.4
2023-01-09T03:17:41.877Z,8.4
2023-01-09T03:20:41.861Z,8.4
2023-01-09T03:23:41.872Z,8.3
2023-01-09T03:26:41.863Z,8.3
2023-01-09T03:29:41.861Z,8.3
2023-01-09T03:32:41.863Z,8.3
2023-01-09T03:35:41.877Z,8.3
2023-01-09T03:38:41.866Z,8.3
2023-01-09T03:41:41.864Z,8.3
2023-01-09T03:44:41.872Z,8.3
2023-01-09T03:47:41.867Z,8.2
2023-01-09T03:50:41.867Z,8.2
2023-01-09T03:53:41.886Z,8.2
2023-01-09T03:56:41.874Z,8.2
2023-01-09T03:59:41.857Z,8.2
2023-01-09T04:02:41.859Z,8.2
2023-01-09T04:05:41.870Z,8.1
2023-01-09T04:08:41.859Z,8.1
2023-01-09T04:11:41.883Z,8.1
2023-01-09T04:14:41.865Z,8.1
2023-01-09T04:17:41.884Z,8
2023-01-09T04:20:41.884Z,8
2023-01-09T04:23:41.875Z,8
2023-01-09T04:26:41.861Z,8
2023-01-09T04:29:41.877Z,8
2023-01-09T04:32:41.883Z,7.9
2023-01-09T04:35:41.878Z,7.9
2023-01-09T04:38:41.881Z,7.9
2023-01-09T04:41:41.872Z,7.9
2023-01-09T04:44:41.878Z,7.9
2023-01-09T04:47:41.861Z,7.9
2023-01-09T04:50:41.877Z,7.9
2023-01-09T04:56:41.866Z,7.9
2023-01-09T04:59:41.878Z,7.8
2023-01-09T05:02:41.875Z,7.8
2023-01-09T05:05:41.877Z,7.8
2023-01-09T05:08:41.862Z,7.8
2023-01-09T05:11:41.875Z,7.8
2023-01-09T05:14:41.858Z,7.8
2023-01-09T05:17:41.874Z,7.8
2023-01-09T05:20:41.881Z,7.8
2023-01-09T05:23:41.876Z,7.7
2023-01-09T05:26:41.879Z,7.7
2023-01-09T05:29:41.879Z,7.7
2023-01-09T05:32:41.868Z,7.7
2023-01-09T05:35:41.873Z,7.6
2023-01-09T05:38:41.867Z,7.7
2023-01-09T05:41:41.880Z,7.6
2023-01-09T05:44:41.867Z,7.6
2023-01-09T05:47:41.886Z,7.6
2023-01-09T05:50:41.880Z,7.6
2023-01-09T05:53:41.900Z,7.6
2023-01-09T05:56:41.947Z,7.6
2023-01-09T05:59:41.884Z,7.6
2023-01-09T06:02:42.080Z,7.6
2023-01-09T06:05:41.894Z,7.5
2023-01-09T06:08:41.868Z,7.5
2023-01-09T06:11:41.870Z,7.5
2023-01-09T06:14:41.879Z,7.5
2023-01-09T06:17:41.889Z,7.5
2023-01-09T06:20:41.894Z,7.5
2023-01-09T06:23:41.885Z,7.4
2023-01-09T06:26:41.886Z,7.4
2023-01-09T06:29:41.885Z,7.4
2023-01-09T06:32:41.887Z,7.4
2023-01-09T06:35:41.887Z,7.4
2023-01-09T06:38:41.867Z,7.4
2023-01-09T06:41:41.889Z,7.4
2023-01-09T06:47:41.874Z,7.5
2023-01-09T06:50:41.892Z,7.5
2023-01-09T06:53:41.890Z,7.5
2023-01-09T06:56:41.890Z,7.5
2023-01-09T06:59:41.880Z,7.5
2023-01-09T07:02:41.876Z,7.5
2023-01-09T07:05:41.888Z,7.5
2023-01-09T07:08:41.892Z,7.5
2023-01-09T07:11:41.876Z,7.5
2023-01-09T07:14:41.904Z,7.5
2023-01-09T07:17:41.891Z,7.5
2023-01-09T07:20:41.892Z,7.5
2023-01-09T07:23:41.878Z,7.5
2023-01-09T07:26:43.305Z,7.6
2023-01-09T07:29:43.170Z,7.6
2023-01-09T07:32:42.819Z,7.6
2023-01-09T07:35:42.816Z,7.6
2023-01-09T07:41:42.823Z,7.6
2023-01-09T07:44:42.815Z,7.6
2023-01-09T07:47:42.817Z,7.6
2023-01-09T07:50:42.981Z,7.6
2023-01-09T07:53:42.957Z,7.6
2023-01-09T07:56:42.955Z,7.6
2023-01-09T07:59:42.972Z,7.6
2023-01-09T08:02:43.034Z,7.6
2023-01-09T08:05:42.977Z,7.6
2023-01-09T08:08:42.979Z,7.6
2023-01-09T08:11:42.990Z,7.6
2023-01-09T08:14:42.963Z,7.6
2023-01-09T08:17:42.966Z,7.6
2023-01-09T08:20:43.018Z,7.7
2023-01-09T08:23:43.000Z,7.7
2023-01-09T08:26:42.995Z,7.6
2023-01-09T08:29:42.997Z,7.6
2023-01-09T08:32:42.986Z,7.7
2023-01-09T08:35:43.105Z,7.7
2023-01-09T08:38:43.005Z,7.7
2023-01-09T08:44:43.000Z,7.7
2023-01-09T08:47:43.003Z,7.7
2023-01-09T08:50:43.006Z,7.7
2023-01-09T08:53:43.002Z,7.7
2023-01-09T08:56:43.002Z,7.7
2023-01-09T08:59:42.985Z,7.7
2023-01-09T09:02:43.016Z,7.8
2023-01-09T09:05:43.928Z,7.8
2023-01-09T09:08:43.001Z,7.8
2023-01-09T09:11:42.988Z,7.8
2023-01-09T09:14:42.994Z,7.9
2023-01-09T09:17:42.993Z,7.9
2023-01-09T09:20:43.003Z,7.9
2023-01-09T09:23:42.997Z,7.9
2023-01-09T09:26:44.474Z,7.9
2023-01-09T09:29:43.013Z,8
2023-01-09T09:32:43.000Z,8
2023-01-09T09:35:43.011Z,8
2023-01-09T09:38:43.005Z,8
2023-01-09T09:41:43.000Z,8
2023-01-09T09:44:48.295Z,8
2023-01-09T09:47:43.006Z,8
2023-01-09T09:50:42.999Z,8
2023-01-09T09:53:43.021Z,8
2023-01-09T09:56:43.002Z,8
2023-01-09T09:59:42.997Z,8
2023-01-09T10:02:43.030Z,8
2023-01-09T10:05:43.015Z,8
2023-01-09T10:08:43.001Z,8
2023-01-09T10:11:43.023Z,8
2023-01-09T10:14:43.013Z,8
2023-01-09T10:17:43.014Z,8
2023-01-09T10:20:43.004Z,8
2023-01-09T10:23:43.024Z,8
2023-01-09T10:26:43.002Z,8
2023-01-09T10:29:43.013Z,8
2023-01-09T10:32:43.019Z,8
2023-01-09T10:35:47.575Z,8
2023-01-09T10:38:43.013Z,8
2023-01-09T10:41:43.015Z,7.9
2023-01-09T10:44:43.019Z,7.9
2023-01-09T10:47:43.004Z,7.9
2023-01-09T10:50:43.026Z,7.9
2023-01-09T10:53:43.020Z,8
2023-01-09T10:56:43.016Z,8
2023-01-09T10:59:43.014Z,8
2023-01-09T11:02:43.020Z,8
2023-01-09T11:05:43.034Z,8
2023-01-09T11:08:43.017Z,8
2023-01-09T11:11:43.028Z,8
2023-01-09T11:14:43.064Z,8
2023-01-09T11:17:43.022Z,8.1
2023-01-09T11:20:43.024Z,8.1
2023-01-09T11:23:43.022Z,8.1
2023-01-09T11:26:43.023Z,8.1
2023-01-09T11:29:43.021Z,8.1
2023-01-09T11:32:43.036Z,8.1
2023-01-09T11:35:43.018Z,8.2
2023-01-09T11:38:43.018Z,8.2
2023-01-09T11:41:43.005Z,8.3
2023-01-09T11:44:43.023Z,8.3
2023-01-09T11:47:43.041Z,8.4
2023-01-09T11:50:43.032Z,8.4
2023-01-09T11:53:43.020Z,8.4
2023-01-09T11:56:43.024Z,8.5
2023-01-09T11:59:43.029Z,8.5
2023-01-09T12:02:43.055Z,8.6
2023-01-09T12:05:43.023Z,8.6
2023-01-09T12:08:43.024Z,8.6
2023-01-09T12:11:43.081Z,8.6
2023-01-09T12:14:43.030Z,8.6
2023-01-09T12:17:43.028Z,8.6
2023-01-09T12:20:43.583Z,8.6
2023-01-09T12:23:43.030Z,8.6
2023-01-09T12:26:43.032Z,8.6
2023-01-09T12:29:43.030Z,8.6
2023-01-09T12:32:43.048Z,8.6
2023-01-09T12:35:43.035Z,8.6
2023-01-09T12:38:43.039Z,8.5
2023-01-09T12:41:43.038Z,8.5
2023-01-09T12:44:43.030Z,8.5
2023-01-09T12:47:45.280Z,8.5
2023-01-09T12:50:43.033Z,8.5
2023-01-09T12:53:43.038Z,8.5
2023-01-09T12:59:43.037Z,8.5
2023-01-09T13:02:43.042Z,8.5
2023-01-09T13:05:43.025Z,8.6
2023-01-09T13:08:43.032Z,8.6
2023-01-09T13:11:43.034Z,8.6
2023-01-09T13:14:43.037Z,8.7
2023-01-09T13:17:43.041Z,8.7
2023-01-09T13:20:43.055Z,8.8
2023-01-09T13:23:43.040Z,8.8
2023-01-09T13:29:43.049Z,8.9
2023-01-09T13:32:43.051Z,8.9
2023-01-09T13:35:43.056Z,8.9
2023-01-09T13:41:45.488Z,8.9
2023-01-09T13:44:43.043Z,8.9
2023-01-09T13:47:43.041Z,8.9
2023-01-09T13:50:43.055Z,8.8
2023-01-09T13:53:43.051Z,8.8
2023-01-09T13:56:43.060Z,8.8
2023-01-09T14:02:43.058Z,8.8
2023-01-09T14:05:43.060Z,8.8
2023-01-09T14:08:43.071Z,8.8
2023-01-09T14:11:43.047Z,8.8
2023-01-09T14:14:43.064Z,8.8
2023-01-09T14:17:43.051Z,8.8
2023-01-09T14:20:43.059Z,8.8
2023-01-09T14:23:51.932Z,8.8
2023-01-09T14:26:43.041Z,8.7
2023-01-09T14:29:43.068Z,8.7
2023-01-09T14:32:43.051Z,8.7
2023-01-09T14:35:43.057Z,8.7
2023-01-09T14:38:43.158Z,8.6
2023-01-09T14:41:43.057Z,8.6
2023-01-09T14:44:43.051Z,8.6
2023-01-09T14:47:43.041Z,8.6
2023-01-09T14:50:43.045Z,8.6
2023-01-09T14:53:43.066Z,8.5
2023-01-09T14:56:43.091Z,8.5
2023-01-09T14:59:43.059Z,8.5
2023-01-09T15:02:43.053Z,8.5
2023-01-09T15:05:43.056Z,8.5
2023-01-09T15:08:43.066Z,8.4
2023-01-09T15:11:43.068Z,8.4
2023-01-09T15:14:43.070Z,8.4
2023-01-09T15:17:43.068Z,8.4
2023-01-09T15:20:43.065Z,8.4
2023-01-09T15:23:43.070Z,8.4
2023-01-09T15:26:43.071Z,8.4
2023-01-09T15:29:43.062Z,8.3
2023-01-09T15:32:43.054Z,8.3
2023-01-09T15:35:43.055Z,8.3
2023-01-09T15:38:43.074Z,8.3
2023-01-09T15:41:43.069Z,8.3
2023-01-09T15:44:43.073Z,8.3
2023-01-09T15:50:43.068Z,8.3
2023-01-09T15:53:43.080Z,8.2
2023-01-09T15:56:43.110Z,8.2
2023-01-09T15:59:43.083Z,8.2
2023-01-09T16:02:43.076Z,8.2
2023-01-09T16:05:43.111Z,8.2
2023-01-09T16:08:43.152Z,8.2
2023-01-09T16:11:43.071Z,8.2
2023-01-09T16:14:43.077Z,8.2
2023-01-09T16:17:44.831Z,8.1
2023-01-09T16:20:43.082Z,8.1
2023-01-09T16:23:43.079Z,8.1
2023-01-09T16:26:43.078Z,8.1
2023-01-09T16:29:43.084Z,8.1
2023-01-09T16:32:43.092Z,8.1
2023-01-09T16:44:43.110Z,8
2023-01-09T16:47:43.117Z,8
2023-01-09T16:53:43.137Z,8
2023-01-09T16:56:43.102Z,8
2023-01-09T16:59:43.096Z,8
2023-01-09T17:02:43.220Z,8
2023-01-09T17:05:43.123Z,7.9
2023-01-09T17:08:43.107Z,7.9
2023-01-09T17:11:43.128Z,7.9
2023-01-09T17:14:43.104Z,7.9
2023-01-09T17:17:43.125Z,7.9
2023-01-09T17:20:43.143Z,7.9
2023-01-09T17:23:43.109Z,7.9
2023-01-09T17:26:43.116Z,7.8
2023-01-09T17:29:43.113Z,7.8
2023-01-09T17:32:43.110Z,7.8
2023-01-09T17:35:43.116Z,7.8
2023-01-09T17:38:43.103Z,7.8
2023-01-09T17:41:43.114Z,7.8
2023-01-09T17:44:43.100Z,7.7
2023-01-09T17:47:43.109Z,7.7
2023-01-09T17:50:43.106Z,7.7
2023-01-09T17:53:43.100Z,7.7
2023-01-09T17:56:43.100Z,7.6
2023-01-09T17:59:43.091Z,7.6
2023-01-09T18:02:43.153Z,7.6
2023-01-09T18:05:43.104Z,7.6
2023-01-09T18:11:43.119Z,7.6
2023-01-09T18:17:43.115Z,7.5
2023-01-09T18:20:43.124Z,7.5
2023-01-09T18:23:43.123Z,7.5
2023-01-09T18:29:43.111Z,7.5
2023-01-09T18:32:43.131Z,7.5
2023-01-09T18:35:43.115Z,7.5
2023-01-09T18:38:43.104Z,7.5
2023-01-09T18:41:43.126Z,7.5
2023-01-09T18:44:43.111Z,7.5
2023-01-09T18:47:43.110Z,7.5
2023-01-09T18:50:43.132Z,7.5
2023-01-09T18:53:43.111Z,7.5
2023-01-09T18:56:43.113Z,7.5
2023-01-09T18:59:43.128Z,7.5
2023-01-09T19:02:43.167Z,7.4
2023-01-09T19:08:43.111Z,7.4
2023-01-09T19:11:43.109Z,7.4
2023-01-09T19:14:43.138Z,7.4
2023-01-09T19:17:43.114Z,7.4
2023-01-09T19:20:43.127Z,7.3
2023-01-09T19:23:43.126Z,7.3
2023-01-09T19:26:43.148Z,7.3
2023-01-09T19:29:43.118Z,7.3
2023-01-09T19:32:43.127Z,7.2
2023-01-09T19:35:43.115Z,7.2
2023-01-09T19:38:43.121Z,7.2
2023-01-09T19:41:43.127Z,7.2
2023-01-09T19:44:43.126Z,7.1
2023-01-09T19:47:43.119Z,7.1
2023-01-09T19:53:43.122Z,7.1
2023-01-09T19:56:43.133Z,7.1
2023-01-09T19:59:43.128Z,7.1
2023-01-09T20:02:43.131Z,7.1
2023-01-09T20:05:43.164Z,7.1
2023-01-09T20:11:43.130Z,7.1
2023-01-09T20:14:43.114Z,7.1
2023-01-09T20:17:43.131Z,7.1
2023-01-09T20:20:43.122Z,7.1
2023-01-09T20:23:43.135Z,7.1
2023-01-09T20:29:43.119Z,7.1
2023-01-09T20:32:43.113Z,7.1
2023-01-09T20:35:43.129Z,7.1
2023-01-09T20:38:43.161Z,7.1
2023-01-09T20:41:43.130Z,7.1
2023-01-09T20:44:43.124Z,7.1
2023-01-09T20:47:43.131Z,7.1
2023-01-09T20:50:43.132Z,7
2023-01-09T20:53:43.126Z,7
2023-01-09T20:56:43.129Z,7
2023-01-09T20:59:43.133Z,6.9
2023-01-09T21:02:43.128Z,6.9
2023-01-09T21:05:43.131Z,6.9
2023-01-09T21:08:43.119Z,6.9
2023-01-09T21:11:43.125Z,6.9
2023-01-09T21:14:43.129Z,6.9
2023-01-09T21:17:43.129Z,6.9
2023-01-09T21:20:43.130Z,6.9
2023-01-09T21:23:43.122Z,6.9
2023-01-09T21:26:43.128Z,6.9
2023-01-09T21:29:43.132Z,6.9
2023-01-09T21:32:43.121Z,6.9
2023-01-09T21:35:43.123Z,6.8
2023-01-09T21:38:43.131Z,6.9
2023-01-09T21:41:43.125Z,6.9
2023-01-09T21:44:43.124Z,6.9
2023-01-09T21:47:43.119Z,6.9
2023-01-09T21:50:43.143Z,6.9
2023-01-09T21:53:43.119Z,6.9
2023-01-09T21:56:43.143Z,6.9
2023-01-09T21:59:43.135Z,6.9
2023-01-09T22:02:43.121Z,6.9
2023-01-09T22:05:43.121Z,6.9
2023-01-09T22:08:43.134Z,6.9
2023-01-09T22:11:43.127Z,6.8
2023-01-09T22:14:43.130Z,6.8
2023-01-09T22:17:43.135Z,6.8
2023-01-09T22:20:43.134Z,6.8
2023-01-09T22:23:43.132Z,6.8
2023-01-09T22:26:43.137Z,6.7
2023-01-09T22:29:43.134Z,6.7
2023-01-09T22:32:43.148Z,6.7
2023-01-09T22:35:43.139Z,6.6
2023-01-09T22:38:43.130Z,6.6
2023-01-09T22:41:43.131Z,6.6
2023-01-09T22:44:43.152Z,6.6
2023-01-09T22:47:43.147Z,6.6
2023-01-09T22:50:43.133Z,6.6
2023-01-09T22:53:43.147Z,6.6
2023-01-09T22:56:43.140Z,6.6
2023-01-09T22:59:43.144Z,6.6
2023-01-09T23:02:43.196Z,6.6
2023-01-09T23:05:43.146Z,6.5
2023-01-09T23:08:43.143Z,6.5
2023-01-09T23:11:43.147Z,6.5
2023-01-09T23:14:43.150Z,6.5
2023-01-09T23:17:43.138Z,6.5
2023-01-09T23:20:43.144Z,6.5
2023-01-09T23:23:43.144Z,6.5
2023-01-09T23:26:43.141Z,6.5
2023-01-09T23:29:43.140Z,6.5
2023-01-09T23:32:43.138Z,6.5
2023-01-09T23:35:43.134Z,6.5
2023-01-09T23:38:43.139Z,6.5
2023-01-09T23:41:43.142Z,6.5
2023-01-09T23:44:43.145Z,6.5
2023-01-09T23:47:43.149Z,6.5
2023-01-09T23:50:43.142Z,6.5
2023-01-09T23:53:43.139Z,6.5
2023-01-09T23:56:43.144Z,6.5
2023-01-09T23:59:43.152Z,6.4
